Terminal Aerodrome Forecast
Issued by NWS Melbourne, FL

Home | Current Version | Previous Version | Text Only | Print | Product List | Glossary On
Versions: 1 2 3 4 5 6 7 8 9 10 11 12 13 14 15 16 17 18 19 20 21 22
000
FTUS42 KMLB 050905 AAA
TAFMCO
TAF AMD
KMCO 050905Z 0509/0606 17003KT 3SM BR FEW003 FEW150
      TEMPO 0509/0513 3SM BR SCT003 BKN008
     FM051500 17010KT P6SM BKN020
     FM051800 18010KT P6SM VCSH BKN040
     FM060000 14006KT P6SM VCSH BKN040=

USA.gov is the U.S. government's official web portal to all federal, state and local government web resources and services.